createdAt,value
2019-05-26T00:00:26.606Z,10.40
2019-05-26T00:02:56.369Z,10.41
2019-05-26T00:05:24.583Z,10.30
2019-05-26T00:07:52.777Z,10.47
2019-05-26T00:10:20.978Z,10.63
2019-05-26T00:12:49.168Z,10.95
2019-05-26T00:15:17.371Z,11.09
2019-05-26T00:17:45.565Z,10.87
2019-05-26T00:20:13.936Z,11.03
2019-05-26T00:22:42.127Z,11.15
2019-05-26T00:25:10.586Z,10.91
2019-05-26T00:27:38.776Z,11.16
2019-05-26T00:30:07.413Z,11.04
2019-05-26T00:32:37.712Z,10.96
2019-05-26T00:35:08.040Z,11.11
2019-05-26T00:37:48.495Z,11.14
2019-05-26T00:40:08.453Z,11.21
2019-05-26T00:42:36.642Z,11.08
2019-05-26T00:45:07.911Z,11.08
2019-05-26T00:47:36.101Z,10.89
2019-05-26T00:50:06.052Z,10.79
2019-05-26T00:52:34.257Z,10.93
2019-05-26T00:55:02.493Z,10.99
2019-05-26T00:57:30.682Z,10.92
2019-05-26T00:59:58.892Z,10.80
2019-05-26T01:02:27.084Z,10.67
2019-05-26T01:04:55.295Z,10.59
2019-05-26T01:07:23.482Z,10.57
2019-05-26T01:09:51.678Z,10.73
2019-05-26T01:12:19.881Z,10.68
2019-05-26T01:14:48.646Z,10.74
2019-05-26T01:17:17.327Z,10.78
2019-05-26T01:19:45.525Z,10.76
2019-05-26T01:22:14.074Z,10.79
2019-05-26T01:24:42.937Z,10.81
2019-05-26T01:27:11.150Z,10.79
2019-05-26T01:29:39.345Z,10.73
2019-05-26T01:32:07.550Z,10.60
2019-05-26T01:34:36.410Z,10.45
2019-05-26T01:37:05.637Z,10.28
2019-05-26T01:39:33.833Z,10.13
2019-05-26T01:42:02.668Z,10.05
2019-05-26T01:44:30.856Z,9.94
2019-05-26T01:46:59.060Z,9.98
2019-05-26T01:49:28.022Z,9.89
2019-05-26T01:52:00.391Z,9.92
2019-05-26T01:54:28.592Z,10.07
2019-05-26T01:56:58.270Z,10.04
2019-05-26T01:59:27.695Z,10.06
2019-05-26T02:01:58.628Z,10.18
2019-05-26T02:04:25.809Z,10.23
2019-05-26T02:06:54.333Z,10.13
2019-05-26T02:09:22.531Z,10.09
2019-05-26T02:11:50.734Z,10.06
2019-05-26T02:14:18.926Z,9.96
2019-05-26T02:16:47.141Z,10.06
2019-05-26T02:19:16.891Z,9.74
2019-05-26T02:21:45.161Z,9.70
2019-05-26T02:24:13.352Z,9.60
2019-05-26T02:26:41.617Z,9.63
2019-05-26T02:29:09.809Z,9.63
2019-05-26T02:31:38.015Z,9.53
2019-05-26T02:34:06.218Z,9.57
2019-05-26T02:36:34.417Z,9.67
2019-05-26T02:39:03.670Z,9.79
2019-05-26T02:41:31.956Z,9.81
2019-05-26T02:44:00.152Z,9.89
2019-05-26T02:46:28.349Z,10.00
2019-05-26T02:48:56.791Z,9.92
2019-05-26T02:51:24.994Z,9.95
2019-05-26T02:53:53.186Z,9.91
2019-05-26T02:56:21.391Z,9.85
2019-05-26T02:58:49.581Z,9.75
2019-05-26T03:01:17.791Z,9.55
2019-05-26T03:03:46.745Z,9.56
2019-05-26T03:06:15.135Z,9.51
2019-05-26T03:08:43.993Z,9.39
2019-05-26T03:11:12.556Z,9.55
2019-05-26T03:13:40.757Z,9.58
2019-05-26T03:16:09.623Z,9.52
2019-05-26T03:18:37.847Z,9.37
2019-05-26T03:21:06.021Z,9.39
2019-05-26T03:23:34.274Z,9.42
2019-05-26T03:26:02.526Z,9.46
2019-05-26T03:28:30.738Z,9.40
2019-05-26T03:30:59.498Z,9.47
2019-05-26T03:33:27.698Z,9.56
2019-05-26T03:35:55.893Z,9.64
2019-05-26T03:38:24.100Z,9.42
2019-05-26T03:40:52.296Z,9.46
2019-05-26T03:43:20.497Z,9.53
2019-05-26T03:46:04.125Z,9.46
2019-05-26T03:48:32.328Z,9.48
2019-05-26T03:51:00.548Z,9.38
2019-05-26T03:53:29.992Z,9.35
2019-05-26T03:55:58.231Z,9.27
2019-05-26T03:58:26.502Z,9.11
2019-05-26T04:00:54.693Z,9.25
2019-05-26T04:03:22.998Z,9.46
2019-05-26T04:05:51.176Z,9.49
2019-05-26T04:08:19.380Z,9.59
2019-05-26T04:10:47.573Z,9.66
2019-05-26T04:13:15.772Z,9.70
2019-05-26T04:15:44.555Z,9.64
2019-05-26T04:18:14.786Z,9.69
2019-05-26T04:20:45.760Z,9.83
2019-05-26T04:23:14.378Z,9.90
2019-05-26T04:25:44.146Z,9.99
2019-05-26T04:28:12.354Z,10.04
2019-05-26T04:30:40.552Z,10.16
2019-05-26T04:33:08.753Z,10.24
2019-05-26T04:35:37.736Z,10.31
2019-05-26T04:38:05.935Z,10.54
2019-05-26T04:40:34.205Z,10.69
2019-05-26T04:43:02.409Z,10.71
2019-05-26T04:45:30.589Z,10.83
2019-05-26T04:47:58.801Z,10.93
2019-05-26T04:50:26.998Z,10.96
2019-05-26T04:53:06.224Z,11.05
2019-05-26T04:55:25.702Z,11.01
2019-05-26T04:57:54.371Z,10.94
2019-05-26T05:00:22.566Z,10.96
2019-05-26T05:02:50.858Z,10.88
2019-05-26T05:05:19.617Z,10.86
2019-05-26T05:07:47.821Z,10.97
2019-05-26T05:10:16.013Z,10.91
2019-05-26T05:12:44.225Z,10.87
2019-05-26T05:15:12.693Z,10.85
2019-05-26T05:17:40.903Z,10.83
2019-05-26T05:20:09.097Z,10.80
2019-05-26T05:22:37.297Z,10.78
2019-05-26T05:25:14.223Z,10.78
2019-05-26T05:27:38.584Z,10.94
2019-05-26T05:30:08.535Z,11.23
2019-05-26T05:32:37.003Z,11.30
2019-05-26T05:35:08.270Z,11.50
2019-05-26T05:37:36.535Z,11.65
2019-05-26T05:40:06.960Z,11.64
2019-05-26T05:42:35.176Z,11.81
2019-05-26T05:45:03.998Z,11.91
2019-05-26T05:47:32.195Z,12.10
2019-05-26T05:50:00.683Z,12.28
2019-05-26T05:52:29.649Z,12.30
2019-05-26T05:54:57.855Z,12.43
2019-05-26T05:57:26.063Z,12.47
2019-05-26T05:59:54.264Z,12.79
2019-05-26T06:02:22.461Z,12.95
2019-05-26T06:04:50.677Z,12.95
2019-05-26T06:07:19.655Z,12.94
2019-05-26T06:09:47.864Z,12.86
2019-05-26T06:12:16.128Z,12.93
2019-05-26T06:14:44.331Z,12.93
2019-05-26T06:17:12.531Z,13.09
2019-05-26T06:19:40.775Z,12.98
2019-05-26T06:22:08.978Z,12.92
2019-05-26T06:24:37.228Z,13.17
2019-05-26T06:27:05.423Z,13.43
2019-05-26T06:29:33.829Z,13.43
2019-05-26T06:32:02.395Z,13.67
2019-05-26T06:34:30.742Z,13.87
2019-05-26T06:36:59.516Z,14.12
2019-05-26T06:39:27.729Z,14.49
2019-05-26T06:41:58.285Z,14.56
2019-05-26T06:44:26.491Z,14.73
2019-05-26T06:46:54.691Z,14.89
2019-05-26T06:49:22.908Z,15.07
2019-05-26T06:51:51.120Z,15.08
2019-05-26T06:54:19.336Z,15.17
2019-05-26T06:56:47.528Z,15.42
2019-05-26T06:59:15.744Z,15.50
2019-05-26T07:01:43.939Z,15.23
2019-05-26T07:04:12.150Z,15.25
2019-05-26T07:06:40.362Z,15.30
2019-05-26T07:09:08.840Z,15.16
2019-05-26T07:11:51.713Z,15.27
2019-05-26T07:14:07.105Z,15.48
2019-05-26T07:16:38.395Z,15.56
2019-05-26T07:19:05.243Z,15.73
2019-05-26T07:21:33.443Z,15.96
2019-05-26T07:24:01.654Z,16.18
2019-05-26T07:26:29.864Z,16.13
2019-05-26T07:28:58.082Z,16.23
2019-05-26T07:31:26.280Z,16.02
2019-05-26T07:33:54.490Z,16.16
2019-05-26T07:36:22.686Z,16.22
2019-05-26T07:38:51.139Z,15.85
2019-05-26T07:41:19.366Z,16.19
2019-05-26T07:43:47.569Z,16.37
2019-05-26T07:46:15.779Z,16.05
2019-05-26T07:48:43.981Z,16.31
2019-05-26T07:51:12.189Z,16.29
2019-05-26T07:53:40.383Z,16.62
2019-05-26T07:56:08.594Z,16.50
2019-05-26T07:58:36.808Z,16.40
2019-05-26T08:03:47.021Z,17.00
2019-05-26T08:09:43.629Z,17.27
2019-05-26T08:12:25.008Z,16.91
2019-05-26T08:14:41.771Z,16.97
2019-05-26T08:17:09.976Z,17.07
2019-05-26T08:19:38.965Z,17.09
2019-05-26T08:22:07.172Z,16.71
2019-05-26T08:24:35.382Z,16.65
2019-05-26T08:27:03.652Z,16.98
2019-05-26T08:29:32.903Z,17.21
2019-05-26T08:32:01.106Z,17.32
2019-05-26T08:34:29.308Z,17.21
2019-05-26T08:36:57.527Z,17.56
2019-05-26T08:39:25.733Z,17.55
2019-05-26T08:41:54.715Z,17.55
2019-05-26T08:44:22.921Z,17.18
2019-05-26T08:46:51.138Z,17.64
2019-05-26T08:49:19.342Z,18.24
2019-05-26T08:51:47.554Z,18.48
2019-05-26T08:54:15.790Z,18.88
2019-05-26T08:56:43.999Z,19.01
2019-05-26T08:59:12.667Z,19.03
2019-05-26T09:01:40.951Z,18.53
2019-05-26T09:04:09.169Z,18.20
2019-05-26T09:06:37.367Z,18.08
2019-05-26T09:09:07.207Z,18.20
2019-05-26T09:11:35.429Z,18.49
2019-05-26T09:14:03.627Z,18.86
2019-05-26T09:16:31.842Z,18.90
2019-05-26T09:19:00.055Z,19.07
2019-05-26T09:21:28.270Z,19.77
2019-05-26T09:23:56.943Z,19.86
2019-05-26T09:26:25.628Z,19.07
2019-05-26T09:28:54.406Z,18.72
2019-05-26T09:31:23.294Z,19.20
2019-05-26T09:33:51.491Z,19.76
2019-05-26T09:36:19.744Z,19.55
2019-05-26T09:38:47.948Z,19.17
2019-05-26T09:41:16.167Z,18.92
2019-05-26T09:43:44.372Z,18.41
2019-05-26T09:46:12.659Z,18.45
2019-05-26T09:48:40.874Z,18.43
2019-05-26T09:51:09.876Z,18.55
2019-05-26T09:53:38.808Z,19.06
2019-05-26T09:56:07.116Z,20.37
2019-05-26T09:58:37.781Z,20.52
2019-05-26T10:01:05.997Z,19.56
2019-05-26T10:03:34.495Z,18.83
2019-05-26T10:06:02.878Z,18.62
2019-05-26T10:08:31.086Z,18.57
2019-05-26T10:10:59.352Z,18.74
2019-05-26T10:13:31.679Z,18.52
2019-05-26T10:15:57.141Z,18.66
2019-05-26T10:18:25.358Z,18.82
2019-05-26T10:20:53.571Z,18.55
2019-05-26T10:23:21.762Z,18.51
2019-05-26T10:25:49.999Z,18.81
2019-05-26T10:28:18.185Z,19.14
2019-05-26T10:30:47.069Z,19.60
2019-05-26T10:33:15.272Z,19.77
2019-05-26T10:35:43.825Z,20.18
2019-05-26T10:38:12.741Z,19.80
2019-05-26T10:40:42.506Z,19.93
2019-05-26T10:43:10.717Z,19.95
2019-05-26T10:45:39.532Z,20.06
2019-05-26T10:48:07.826Z,19.77
2019-05-26T10:50:36.021Z,19.47
2019-05-26T10:53:04.233Z,19.17
2019-05-26T10:55:32.421Z,18.80
2019-05-26T10:58:00.641Z,18.66
2019-05-26T11:00:28.839Z,18.92
2019-05-26T11:02:57.053Z,19.06
2019-05-26T11:05:25.531Z,18.94
2019-05-26T11:07:53.729Z,19.12
2019-05-26T11:10:21.927Z,19.15
2019-05-26T11:12:50.134Z,18.95
2019-05-26T11:15:19.030Z,18.98
2019-05-26T11:17:47.978Z,19.15
2019-05-26T11:20:17.807Z,19.43
2019-05-26T11:22:46.026Z,19.39
2019-05-26T11:25:15.088Z,19.52
2019-05-26T11:27:43.317Z,19.57
2019-05-26T11:30:12.528Z,19.48
2019-05-26T11:32:40.735Z,19.50
2019-05-26T11:35:08.925Z,19.71
2019-05-26T11:37:37.135Z,19.77
2019-05-26T11:40:06.570Z,19.63
2019-05-26T11:42:34.772Z,19.70
2019-05-26T11:45:04.504Z,19.33
2019-05-26T11:47:33.381Z,19.36
2019-05-26T11:50:01.590Z,19.06
2019-05-26T11:52:29.794Z,19.24
2019-05-26T11:54:58.000Z,19.25
2019-05-26T11:57:26.209Z,19.04
2019-05-26T11:59:54.416Z,19.01
2019-05-26T12:02:22.614Z,19.05
2019-05-26T12:04:50.818Z,19.09
2019-05-26T12:07:19.010Z,19.18
2019-05-26T12:09:47.207Z,19.21
2019-05-26T12:12:15.415Z,19.15
2019-05-26T12:14:44.376Z,19.31
2019-05-26T12:17:12.585Z,19.72
2019-05-26T12:19:40.782Z,20.01
2019-05-26T12:22:08.987Z,20.19
2019-05-26T12:24:37.755Z,20.19
2019-05-26T12:27:05.966Z,20.26
2019-05-26T12:29:34.158Z,19.92
2019-05-26T12:32:02.374Z,19.63
2019-05-26T12:34:30.592Z,19.67
2019-05-26T12:36:58.820Z,19.88
2019-05-26T12:39:27.007Z,20.21
2019-05-26T12:41:55.233Z,20.46
2019-05-26T12:44:24.514Z,20.42
2019-05-26T12:46:53.281Z,20.69
2019-05-26T12:49:21.493Z,21.09
2019-05-26T12:51:50.463Z,21.26
2019-05-26T12:54:18.660Z,21.46
2019-05-26T12:56:46.854Z,21.66
2019-05-26T12:59:15.634Z,21.59
2019-05-26T13:01:44.298Z,20.77
2019-05-26T13:04:13.175Z,20.66
2019-05-26T13:06:41.932Z,20.47
2019-05-26T13:09:11.706Z,20.59
2019-05-26T13:11:39.901Z,20.94
2019-05-26T13:14:08.110Z,21.12
2019-05-26T13:16:36.381Z,21.34
2019-05-26T13:19:05.263Z,21.15
2019-05-26T13:21:33.455Z,21.06
2019-05-26T13:24:01.669Z,21.07
2019-05-26T13:26:30.148Z,21.34
2019-05-26T13:28:59.692Z,21.57
2019-05-26T13:31:27.886Z,21.28
2019-05-26T13:33:56.085Z,21.53
2019-05-26T13:36:24.347Z,22.11
2019-05-26T13:38:53.317Z,22.37
2019-05-26T13:41:21.541Z,22.02
2019-05-26T13:43:50.418Z,22.41
2019-05-26T13:46:19.221Z,22.52
2019-05-26T13:48:47.398Z,21.80
2019-05-26T13:51:16.157Z,21.67
2019-05-26T13:53:44.364Z,21.44
2019-05-26T13:56:12.555Z,21.39
2019-05-26T13:58:40.763Z,21.35
2019-05-26T14:01:08.962Z,21.57
2019-05-26T14:03:37.482Z,21.50
2019-05-26T14:06:05.734Z,21.55
2019-05-26T14:08:33.914Z,21.63
2019-05-26T14:11:02.101Z,21.81
2019-05-26T14:13:30.975Z,21.96
2019-05-26T14:15:59.738Z,21.85
2019-05-26T14:18:28.318Z,21.56
2019-05-26T14:20:56.509Z,21.56
2019-05-26T14:23:24.712Z,21.44
2019-05-26T14:25:52.908Z,21.52
2019-05-26T14:28:21.114Z,21.63
2019-05-26T14:30:49.304Z,21.17
2019-05-26T14:33:17.574Z,20.71
2019-05-26T14:35:47.245Z,20.53
2019-05-26T14:38:15.769Z,20.53
2019-05-26T14:40:43.969Z,20.96
2019-05-26T14:43:12.191Z,21.70
2019-05-26T14:45:52.905Z,22.36
2019-05-26T14:48:10.863Z,22.35
2019-05-26T14:50:40.856Z,22.25
2019-05-26T14:53:08.985Z,22.37
2019-05-26T14:55:37.198Z,21.99
2019-05-26T14:58:14.866Z,21.80
2019-05-26T15:00:36.118Z,21.53
2019-05-26T15:03:04.524Z,21.32
2019-05-26T15:05:32.884Z,21.46
2019-05-26T15:08:02.251Z,21.45
2019-05-26T15:10:31.221Z,21.40
2019-05-26T15:12:59.413Z,21.56
2019-05-26T15:15:27.715Z,21.73
2019-05-26T15:17:55.907Z,21.34
2019-05-26T15:20:24.112Z,21.78
2019-05-26T15:22:52.328Z,21.76
2019-05-26T15:25:21.094Z,21.60
2019-05-26T15:27:49.296Z,21.81
2019-05-26T15:30:17.671Z,21.66
2019-05-26T15:32:46.335Z,21.23
2019-05-26T15:35:14.541Z,21.22
2019-05-26T15:37:42.810Z,21.36
2019-05-26T15:40:11.017Z,21.02
2019-05-26T15:42:39.230Z,21.06
2019-05-26T15:45:07.716Z,21.06
2019-05-26T15:47:35.909Z,20.82
2019-05-26T15:50:06.720Z,20.86
2019-05-26T15:52:34.918Z,20.95
2019-05-26T15:55:03.129Z,20.98
2019-05-26T15:57:31.468Z,20.87
2019-05-26T15:59:59.912Z,20.70
2019-05-26T16:02:28.104Z,20.71
2019-05-26T16:04:58.901Z,20.66
2019-05-26T16:07:26.826Z,20.46
2019-05-26T16:09:55.098Z,20.46
2019-05-26T16:12:23.293Z,20.27
2019-05-26T16:14:51.509Z,20.46
2019-05-26T16:17:20.268Z,20.40
2019-05-26T16:19:48.470Z,20.24
2019-05-26T16:22:16.665Z,19.99
2019-05-26T16:24:44.872Z,19.98
2019-05-26T16:27:19.334Z,19.97
2019-05-26T16:29:46.385Z,20.08
2019-05-26T16:32:12.924Z,19.82
2019-05-26T16:34:41.140Z,19.82
2019-05-26T16:37:09.340Z,19.71
2019-05-26T16:39:37.808Z,19.66
2019-05-26T16:42:06.038Z,19.69
2019-05-26T16:44:34.236Z,19.67
2019-05-26T16:47:03.080Z,19.65
2019-05-26T16:49:31.531Z,19.78
2019-05-26T16:52:00.298Z,19.78
2019-05-26T16:54:28.505Z,19.65
2019-05-26T16:56:56.707Z,19.80
2019-05-26T16:59:24.903Z,19.97
2019-05-26T17:01:53.110Z,19.92
2019-05-26T17:04:21.314Z,19.88
2019-05-26T17:06:49.690Z,19.80
2019-05-26T17:09:18.371Z,19.76
2019-05-26T17:11:46.577Z,19.84
2019-05-26T17:14:15.346Z,19.81
2019-05-26T17:16:44.020Z,19.75
2019-05-26T17:19:12.236Z,19.74
2019-05-26T17:21:45.577Z,19.68
2019-05-26T17:24:12.539Z,19.60
2019-05-26T17:26:40.744Z,19.42
2019-05-26T17:29:09.408Z,19.31
2019-05-26T17:31:37.610Z,19.33
2019-05-26T17:34:05.810Z,19.37
2019-05-26T17:36:34.590Z,19.46
2019-05-26T17:39:02.858Z,19.39
2019-05-26T17:41:31.051Z,19.30
2019-05-26T17:47:30.665Z,19.34
2019-05-26T17:49:58.024Z,19.18
2019-05-26T17:52:26.222Z,19.15
2019-05-26T17:54:54.418Z,19.31
2019-05-26T17:57:22.626Z,19.16
2019-05-26T17:59:50.816Z,19.36
2019-05-26T18:02:19.882Z,19.23
2019-05-26T18:04:48.076Z,18.90
2019-05-26T18:07:16.283Z,18.98
2019-05-26T18:09:44.844Z,18.96
2019-05-26T18:12:13.237Z,18.78
2019-05-26T18:14:41.806Z,18.94
2019-05-26T18:17:10.641Z,18.89
2019-05-26T18:19:41.282Z,18.85
2019-05-26T18:22:13.374Z,18.84
2019-05-26T18:24:53.143Z,18.63
2019-05-26T18:27:11.257Z,18.61
2019-05-26T18:29:39.409Z,18.64
2019-05-26T18:32:07.641Z,18.61
2019-05-26T18:34:36.096Z,18.66
2019-05-26T18:37:04.371Z,18.67
2019-05-26T18:39:32.853Z,18.52
2019-05-26T18:42:02.510Z,18.49
2019-05-26T18:44:30.699Z,18.46
2019-05-26T18:46:58.966Z,18.27
2019-05-26T18:49:27.152Z,18.29
2019-05-26T18:51:57.760Z,18.15
2019-05-26T18:54:26.208Z,18.15
2019-05-26T18:56:54.429Z,18.15
2019-05-26T18:59:22.626Z,18.09
2019-05-26T19:01:50.829Z,18.31
2019-05-26T19:04:19.037Z,18.22
2019-05-26T19:06:47.243Z,18.14
2019-05-26T19:09:15.441Z,18.13
2019-05-26T19:11:44.215Z,18.07
2019-05-26T19:14:12.405Z,18.10
2019-05-26T19:16:41.187Z,18.13
2019-05-26T19:19:09.385Z,18.03
2019-05-26T19:21:37.618Z,18.02
2019-05-26T19:24:05.814Z,18.14
2019-05-26T19:26:34.022Z,17.87
2019-05-26T19:29:05.049Z,17.73
2019-05-26T19:31:33.607Z,17.76
2019-05-26T19:34:01.807Z,17.82
2019-05-26T19:36:30.014Z,17.82
2019-05-26T19:38:58.211Z,17.85
2019-05-26T19:41:26.415Z,17.84
2019-05-26T19:43:54.609Z,17.91
2019-05-26T19:46:22.814Z,18.01
2019-05-26T19:48:51.095Z,17.87
2019-05-26T19:51:19.304Z,17.81
2019-05-26T19:53:47.505Z,17.85
2019-05-26T19:56:15.705Z,17.86
2019-05-26T19:58:43.901Z,17.64
2019-05-26T20:01:13.999Z,17.71
2019-05-26T20:03:42.482Z,17.71
2019-05-26T20:06:10.684Z,17.47
2019-05-26T20:08:38.900Z,17.50
2019-05-26T20:11:07.112Z,17.49
2019-05-26T20:13:35.321Z,17.42
2019-05-26T20:16:03.581Z,17.43
2019-05-26T20:18:33.367Z,17.38
2019-05-26T20:23:49.348Z,17.40
2019-05-26T20:26:17.541Z,17.32
2019-05-26T20:28:45.760Z,17.32
2019-05-26T20:31:13.996Z,17.35
2019-05-26T20:33:42.745Z,17.35
2019-05-26T20:36:10.935Z,17.40
2019-05-26T20:38:39.314Z,17.22
2019-05-26T20:41:07.509Z,17.12
2019-05-26T20:43:35.751Z,17.12
2019-05-26T20:46:03.937Z,17.27
2019-05-26T20:48:32.142Z,17.00
2019-05-26T20:51:00.346Z,16.93
2019-05-26T20:53:28.546Z,16.93
2019-05-26T20:55:56.811Z,16.91
2019-05-26T20:58:26.157Z,16.78
2019-05-26T21:00:54.355Z,16.76
2019-05-26T21:03:22.580Z,16.85
2019-05-26T21:05:50.840Z,16.72
2019-05-26T21:08:19.050Z,16.79
2019-05-26T21:10:47.716Z,16.88
2019-05-26T21:13:17.390Z,16.90
2019-05-26T21:15:45.586Z,16.84
2019-05-26T21:18:13.847Z,16.73
2019-05-26T21:20:43.839Z,16.74
2019-05-26T21:23:12.024Z,16.74
2019-05-26T21:25:40.231Z,16.89
2019-05-26T21:28:08.430Z,16.81
2019-05-26T21:30:36.658Z,16.80
2019-05-26T21:33:05.023Z,16.80
2019-05-26T21:35:35.878Z,16.70
2019-05-26T21:38:04.075Z,16.76
2019-05-26T21:40:32.773Z,16.72
2019-05-26T21:43:00.968Z,16.72
2019-05-26T21:45:29.434Z,16.77
2019-05-26T21:47:57.742Z,16.65
2019-05-26T21:50:25.945Z,16.52
2019-05-26T21:52:54.154Z,16.61
2019-05-26T21:55:22.351Z,16.48
2019-05-26T21:57:51.024Z,16.57
2019-05-26T22:00:23.708Z,16.54
2019-05-26T22:02:52.687Z,16.43
2019-05-26T22:05:20.876Z,16.43
2019-05-26T22:07:49.077Z,16.51
2019-05-26T22:10:17.273Z,16.29
2019-05-26T22:12:45.476Z,16.18
2019-05-26T22:15:15.306Z,16.06
2019-05-26T22:17:43.499Z,15.86
2019-05-26T22:20:11.782Z,15.84
2019-05-26T22:22:39.971Z,16.03
2019-05-26T22:25:08.178Z,16.07
2019-05-26T22:27:36.372Z,15.92
2019-05-26T22:30:08.387Z,16.00
2019-05-26T22:32:36.912Z,15.84
2019-05-26T22:35:08.126Z,15.67
2019-05-26T22:37:36.314Z,15.83
2019-05-26T22:40:06.520Z,15.82
2019-05-26T22:42:34.722Z,15.87
2019-05-26T22:45:03.747Z,15.86
2019-05-26T22:47:32.155Z,15.78
2019-05-26T22:50:00.365Z,15.66
2019-05-26T22:52:28.558Z,15.61
2019-05-26T22:54:56.760Z,15.63
2019-05-26T22:57:24.949Z,15.62
2019-05-26T22:59:53.150Z,15.69
2019-05-26T23:02:22.691Z,15.72
2019-05-26T23:04:50.896Z,15.77
2019-05-26T23:07:19.086Z,15.72
2019-05-26T23:09:47.293Z,15.58
2019-05-26T23:12:16.522Z,15.57
2019-05-26T23:14:44.728Z,15.55
2019-05-26T23:17:12.927Z,15.57
2019-05-26T23:19:41.133Z,15.67
2019-05-26T23:22:09.328Z,15.56
2019-05-26T23:24:37.533Z,15.35
2019-05-26T23:27:05.808Z,15.44
2019-05-26T23:29:34.008Z,15.47
2019-05-26T23:32:03.663Z,15.49
2019-05-26T23:34:31.945Z,15.50
2019-05-26T23:37:00.136Z,15.62
2019-05-26T23:39:28.339Z,15.66
2019-05-26T23:41:56.524Z,15.68
2019-05-26T23:44:24.724Z,15.71
2019-05-26T23:46:52.913Z,15.68
2019-05-26T23:49:21.114Z,15.67
2019-05-26T23:51:49.306Z,15.70
2019-05-26T23:54:17.512Z,15.75
2019-05-26T23:56:46.479Z,15.75
2019-05-26T23:59:14.761Z,15.72
